sensor_id;sensor_type;location;lat;lon;timestamp;P1;durP1;ratioP1;P2;durP2;ratioP2
46054;SDS011;31788;6.954;-71.872;2023-05-15T00:01:23;4.82;;;1.83;;
46054;SDS011;31788;6.954;-71.872;2023-05-15T00:03:50;5.55;;;2.63;;
46054;SDS011;31788;6.954;-71.872;2023-05-15T00:06:17;4.50;;;1.80;;
46054;SDS011;31788;6.954;-71.872;2023-05-15T00:08:44;5.43;;;1.88;;
46054;SDS011;31788;6.954;-71.872;2023-05-15T00:11:11;5.25;;;2.08;;
46054;SDS011;31788;6.954;-71.872;2023-05-15T00:13:37;5.50;;;2.30;;
46054;SDS011;31788;6.954;-71.872;2023-05-15T00:16:07;5.70;;;2.30;;
46054;SDS011;31788;6.954;-71.872;2023-05-15T00:18:34;6.15;;;2.00;;
46054;SDS011;31788;6.954;-71.872;2023-05-15T00:21:01;3.80;;;1.92;;
46054;SDS011;31788;6.954;-71.872;2023-05-15T00:23:29;3.70;;;1.70;;
46054;SDS011;31788;6.954;-71.872;2023-05-15T00:25:56;4.80;;;1.98;;
46054;SDS011;31788;6.954;-71.872;2023-05-15T00:28:23;3.00;;;1.83;;
46054;SDS011;31788;6.954;-71.872;2023-05-15T00:30:49;3.40;;;1.58;;
46054;SDS011;31788;6.954;-71.872;2023-05-15T00:33:16;3.47;;;1.50;;
46054;SDS011;31788;6.954;-71.872;2023-05-15T00:35:43;6.05;;;2.60;;
46054;SDS011;31788;6.954;-71.872;2023-05-15T00:38:10;4.20;;;2.05;;
46054;SDS011;31788;6.954;-71.872;2023-05-15T00:40:37;4.00;;;1.73;;
46054;SDS011;31788;6.954;-71.872;2023-05-15T00:43:05;4.47;;;1.88;;
46054;SDS011;31788;6.954;-71.872;2023-05-15T00:45:34;2.95;;;1.33;;
46054;SDS011;31788;6.954;-71.872;2023-05-15T00:48:03;4.50;;;1.10;;
46054;SDS011;31788;6.954;-71.872;2023-05-15T00:50:32;1.77;;;1.20;;
46054;SDS011;31788;6.954;-71.872;2023-05-15T00:53:00;2.70;;;1.08;;
46054;SDS011;31788;6.954;-71.872;2023-05-15T00:55:27;1.50;;;0.80;;
46054;SDS011;31788;6.954;-71.872;2023-05-15T00:57:55;2.63;;;0.85;;
46054;SDS011;31788;6.954;-71.872;2023-05-15T01:00:23;3.60;;;1.40;;
46054;SDS011;31788;6.954;-71.872;2023-05-15T01:02:52;4.35;;;1.20;;
46054;SDS011;31788;6.954;-71.872;2023-05-15T01:05:19;4.90;;;1.30;;
46054;SDS011;31788;6.954;-71.872;2023-05-15T01:07:55;5.90;;;1.67;;
46054;SDS011;31788;6.954;-71.872;2023-05-15T01:10:42;3.53;;;1.10;;
46054;SDS011;31788;6.954;-71.872;2023-05-15T01:13:10;4.95;;;1.20;;
46054;SDS011;31788;6.954;-71.872;2023-05-15T01:15:39;4.05;;;1.05;;
46054;SDS011;31788;6.954;-71.872;2023-05-15T01:18:06;3.40;;;0.80;;
46054;SDS011;31788;6.954;-71.872;2023-05-15T01:20:36;1.83;;;0.75;;
46054;SDS011;31788;6.954;-71.872;2023-05-15T01:27:03;4.00;;;0.65;;
46054;SDS011;31788;6.954;-71.872;2023-05-15T01:28:57;2.80;;;0.60;;
46054;SDS011;31788;6.954;-71.872;2023-05-15T01:31:47;3.57;;;1.00;;
46054;SDS011;31788;6.954;-71.872;2023-05-15T01:34:18;7.18;;;2.35;;
46054;SDS011;31788;6.954;-71.872;2023-05-15T01:36:52;4.15;;;1.55;;
46054;SDS011;31788;6.954;-71.872;2023-05-15T01:39:23;5.03;;;1.42;;
46054;SDS011;31788;6.954;-71.872;2023-05-15T01:41:54;4.40;;;1.40;;
46054;SDS011;31788;6.954;-71.872;2023-05-15T01:44:27;3.85;;;1.35;;
46054;SDS011;31788;6.954;-71.872;2023-05-15T01:47:03;2.87;;;0.90;;
46054;SDS011;31788;6.954;-71.872;2023-05-15T01:49:34;4.07;;;1.10;;
46054;SDS011;31788;6.954;-71.872;2023-05-15T01:55:01;7.55;;;4.32;;
46054;SDS011;31788;6.954;-71.872;2023-05-15T01:57:30;4.93;;;1.80;;
46054;SDS011;31788;6.954;-71.872;2023-05-15T01:59:58;3.80;;;1.27;;
46054;SDS011;31788;6.954;-71.872;2023-05-15T02:02:26;2.70;;;1.33;;
46054;SDS011;31788;6.954;-71.872;2023-05-15T02:04:54;15.05;;;4.10;;
46054;SDS011;31788;6.954;-71.872;2023-05-15T02:07:22;9.75;;;4.20;;
46054;SDS011;31788;6.954;-71.872;2023-05-15T02:09:52;7.53;;;2.65;;
46054;SDS011;31788;6.954;-71.872;2023-05-15T02:12:20;13.07;;;2.58;;
46054;SDS011;31788;6.954;-71.872;2023-05-15T02:14:47;6.63;;;1.67;;
46054;SDS011;31788;6.954;-71.872;2023-05-15T02:17:15;4.22;;;1.80;;
46054;SDS011;31788;6.954;-71.872;2023-05-15T02:19:42;5.30;;;1.70;;
46054;SDS011;31788;6.954;-71.872;2023-05-15T02:22:10;4.72;;;1.75;;
46054;SDS011;31788;6.954;-71.872;2023-05-15T02:24:36;4.30;;;1.60;;
46054;SDS011;31788;6.954;-71.872;2023-05-15T02:27:16;9.38;;;3.63;;
46054;SDS011;31788;6.954;-71.872;2023-05-15T02:37:59;8.68;;;4.97;;
46054;SDS011;31788;6.954;-71.872;2023-05-15T02:40:31;5.32;;;2.85;;
46054;SDS011;31788;6.954;-71.872;2023-05-15T02:43:01;7.07;;;3.20;;
46054;SDS011;31788;6.954;-71.872;2023-05-15T02:45:28;7.68;;;2.80;;
46054;SDS011;31788;6.954;-71.872;2023-05-15T02:47:56;8.10;;;2.53;;
46054;SDS011;31788;6.954;-71.872;2023-05-15T02:50:24;5.37;;;2.30;;
46054;SDS011;31788;6.954;-71.872;2023-05-15T02:53:00;6.00;;;2.30;;
46054;SDS011;31788;6.954;-71.872;2023-05-15T02:55:27;7.57;;;3.38;;
46054;SDS011;31788;6.954;-71.872;2023-05-15T02:57:54;7.78;;;2.97;;
46054;SDS011;31788;6.954;-71.872;2023-05-15T03:00:21;6.57;;;1.90;;
46054;SDS011;31788;6.954;-71.872;2023-05-15T03:02:48;7.90;;;1.70;;
46054;SDS011;31788;6.954;-71.872;2023-05-15T03:05:15;2.93;;;1.30;;
46054;SDS011;31788;6.954;-71.872;2023-05-15T03:07:41;4.60;;;1.02;;
46054;SDS011;31788;6.954;-71.872;2023-05-15T03:10:08;3.58;;;1.20;;
46054;SDS011;31788;6.954;-71.872;2023-05-15T03:12:35;5.38;;;1.02;;
46054;SDS011;31788;6.954;-71.872;2023-05-15T03:15:03;3.00;;;1.00;;
46054;SDS011;31788;6.954;-71.872;2023-05-15T03:17:31;6.05;;;0.85;;
46054;SDS011;31788;6.954;-71.872;2023-05-15T03:19:57;2.58;;;0.80;;
46054;SDS011;31788;6.954;-71.872;2023-05-15T03:22:24;2.92;;;0.85;;
46054;SDS011;31788;6.954;-71.872;2023-05-15T03:24:51;3.30;;;0.70;;
46054;SDS011;31788;6.954;-71.872;2023-05-15T03:27:17;4.57;;;0.90;;
46054;SDS011;31788;6.954;-71.872;2023-05-15T03:29:44;4.40;;;0.80;;
46054;SDS011;31788;6.954;-71.872;2023-05-15T03:32:13;2.55;;;0.70;;
46054;SDS011;31788;6.954;-71.872;2023-05-15T03:34:40;2.23;;;0.60;;
46054;SDS011;31788;6.954;-71.872;2023-05-15T03:37:06;3.10;;;0.70;;
46054;SDS011;31788;6.954;-71.872;2023-05-15T03:39:33;3.25;;;1.17;;
46054;SDS011;31788;6.954;-71.872;2023-05-15T03:41:59;2.00;;;0.80;;
46054;SDS011;31788;6.954;-71.872;2023-05-15T03:44:26;3.20;;;0.85;;
46054;SDS011;31788;6.954;-71.872;2023-05-15T03:46:53;0.88;;;0.70;;
46054;SDS011;31788;6.954;-71.872;2023-05-15T03:49:20;3.30;;;0.80;;
46054;SDS011;31788;6.954;-71.872;2023-05-15T03:51:47;1.75;;;0.95;;
46054;SDS011;31788;6.954;-71.872;2023-05-15T03:54:13;2.47;;;0.80;;
46054;SDS011;31788;6.954;-71.872;2023-05-15T03:56:40;3.47;;;0.75;;
46054;SDS011;31788;6.954;-71.872;2023-05-15T03:59:06;2.53;;;0.60;;
46054;SDS011;31788;6.954;-71.872;2023-05-15T04:01:33;2.58;;;0.73;;
46054;SDS011;31788;6.954;-71.872;2023-05-15T04:04:00;1.27;;;0.70;;
46054;SDS011;31788;6.954;-71.872;2023-05-15T04:06:26;1.48;;;0.60;;
46054;SDS011;31788;6.954;-71.872;2023-05-15T04:08:53;1.55;;;0.40;;
46054;SDS011;31788;6.954;-71.872;2023-05-15T04:11:19;1.33;;;0.57;;
46054;SDS011;31788;6.954;-71.872;2023-05-15T04:13:47;1.63;;;0.50;;
46054;SDS011;31788;6.954;-71.872;2023-05-15T04:16:13;3.05;;;0.60;;
46054;SDS011;31788;6.954;-71.872;2023-05-15T04:18:40;3.20;;;0.80;;
46054;SDS011;31788;6.954;-71.872;2023-05-15T04:21:07;2.00;;;0.60;;
46054;SDS011;31788;6.954;-71.872;2023-05-15T04:23:33;2.63;;;0.60;;
46054;SDS011;31788;6.954;-71.872;2023-05-15T04:26:00;3.15;;;0.57;;
46054;SDS011;31788;6.954;-71.872;2023-05-15T04:28:27;2.55;;;0.70;;
46054;SDS011;31788;6.954;-71.872;2023-05-15T04:30:53;2.72;;;0.77;;
46054;SDS011;31788;6.954;-71.872;2023-05-15T04:33:20;2.33;;;0.70;;
46054;SDS011;31788;6.954;-71.872;2023-05-15T04:35:46;2.30;;;0.60;;
46054;SDS011;31788;6.954;-71.872;2023-05-15T04:38:13;2.95;;;0.70;;
46054;SDS011;31788;6.954;-71.872;2023-05-15T04:40:40;6.18;;;0.75;;
46054;SDS011;31788;6.954;-71.872;2023-05-15T04:43:07;3.03;;;0.90;;
46054;SDS011;31788;6.954;-71.872;2023-05-15T04:45:33;1.50;;;0.60;;
46054;SDS011;31788;6.954;-71.872;2023-05-15T04:48:00;2.50;;;0.60;;
46054;SDS011;31788;6.954;-71.872;2023-05-15T04:50:27;2.78;;;0.50;;
46054;SDS011;31788;6.954;-71.872;2023-05-15T04:52:53;3.05;;;0.52;;
46054;SDS011;31788;6.954;-71.872;2023-05-15T04:55:20;1.60;;;0.50;;
46054;SDS011;31788;6.954;-71.872;2023-05-15T04:57:47;1.77;;;0.50;;
46054;SDS011;31788;6.954;-71.872;2023-05-15T05:00:14;2.05;;;0.55;;
46054;SDS011;31788;6.954;-71.872;2023-05-15T05:02:41;3.08;;;0.60;;
46054;SDS011;31788;6.954;-71.872;2023-05-15T05:05:08;3.28;;;0.65;;
46054;SDS011;31788;6.954;-71.872;2023-05-15T05:07:35;2.70;;;0.60;;
46054;SDS011;31788;6.954;-71.872;2023-05-15T05:10:02;1.77;;;0.50;;
46054;SDS011;31788;6.954;-71.872;2023-05-15T05:12:29;3.95;;;0.50;;
46054;SDS011;31788;6.954;-71.872;2023-05-15T05:14:56;1.67;;;0.50;;
46054;SDS011;31788;6.954;-71.872;2023-05-15T05:17:22;2.15;;;0.47;;
46054;SDS011;31788;6.954;-71.872;2023-05-15T05:19:49;2.53;;;0.60;;
46054;SDS011;31788;6.954;-71.872;2023-05-15T05:22:16;3.00;;;0.50;;
46054;SDS011;31788;6.954;-71.872;2023-05-15T05:24:42;2.38;;;0.52;;
46054;SDS011;31788;6.954;-71.872;2023-05-15T05:27:09;3.13;;;0.50;;
46054;SDS011;31788;6.954;-71.872;2023-05-15T05:29:36;4.60;;;0.70;;
46054;SDS011;31788;6.954;-71.872;2023-05-15T05:32:04;2.78;;;0.90;;
46054;SDS011;31788;6.954;-71.872;2023-05-15T05:34:32;3.30;;;0.70;;
46054;SDS011;31788;6.954;-71.872;2023-05-15T05:36:59;3.63;;;0.68;;
46054;SDS011;31788;6.954;-71.872;2023-05-15T05:39:25;1.08;;;0.60;;
46054;SDS011;31788;6.954;-71.872;2023-05-15T05:41:52;3.58;;;1.15;;
46054;SDS011;31788;6.954;-71.872;2023-05-15T05:44:18;4.82;;;0.70;;
46054;SDS011;31788;6.954;-71.872;2023-05-15T05:46:45;2.08;;;0.75;;
46054;SDS011;31788;6.954;-71.872;2023-05-15T05:49:11;3.30;;;0.60;;
46054;SDS011;31788;6.954;-71.872;2023-05-15T05:51:38;1.92;;;0.80;;
46054;SDS011;31788;6.954;-71.872;2023-05-15T05:54:05;3.50;;;0.73;;
46054;SDS011;31788;6.954;-71.872;2023-05-15T05:56:31;2.85;;;0.85;;
46054;SDS011;31788;6.954;-71.872;2023-05-15T05:58:58;4.10;;;1.20;;
46054;SDS011;31788;6.954;-71.872;2023-05-15T06:01:26;4.05;;;1.63;;
46054;SDS011;31788;6.954;-71.872;2023-05-15T06:03:53;5.53;;;1.73;;
46054;SDS011;31788;6.954;-71.872;2023-05-15T06:06:20;4.40;;;1.53;;
46054;SDS011;31788;6.954;-71.872;2023-05-15T06:08:46;3.60;;;1.00;;
46054;SDS011;31788;6.954;-71.872;2023-05-15T06:11:13;2.20;;;0.90;;
46054;SDS011;31788;6.954;-71.872;2023-05-15T06:13:40;2.42;;;0.90;;
46054;SDS011;31788;6.954;-71.872;2023-05-15T06:16:07;3.95;;;0.80;;
46054;SDS011;31788;6.954;-71.872;2023-05-15T06:18:34;3.60;;;0.80;;
46054;SDS011;31788;6.954;-71.872;2023-05-15T06:21:01;1.95;;;0.73;;
46054;SDS011;31788;6.954;-71.872;2023-05-15T06:23:27;2.00;;;0.90;;
46054;SDS011;31788;6.954;-71.872;2023-05-15T06:25:54;1.67;;;0.70;;
46054;SDS011;31788;6.954;-71.872;2023-05-15T06:28:21;3.03;;;0.68;;
46054;SDS011;31788;6.954;-71.872;2023-05-15T06:30:47;4.47;;;0.80;;
46054;SDS011;31788;6.954;-71.872;2023-05-15T06:33:14;2.03;;;0.50;;
46054;SDS011;31788;6.954;-71.872;2023-05-15T06:35:40;0.55;;;0.40;;
46054;SDS011;31788;6.954;-71.872;2023-05-15T06:38:07;2.97;;;0.60;;
46054;SDS011;31788;6.954;-71.872;2023-05-15T06:40:34;3.65;;;0.80;;
46054;SDS011;31788;6.954;-71.872;2023-05-15T06:43:00;4.57;;;0.60;;
46054;SDS011;31788;6.954;-71.872;2023-05-15T06:45:27;0.88;;;0.40;;
46054;SDS011;31788;6.954;-71.872;2023-05-15T06:47:54;5.32;;;0.60;;
46054;SDS011;31788;6.954;-71.872;2023-05-15T06:50:21;3.00;;;0.70;;
46054;SDS011;31788;6.954;-71.872;2023-05-15T06:52:47;2.42;;;0.73;;
46054;SDS011;31788;6.954;-71.872;2023-05-15T06:55:14;3.75;;;0.60;;
46054;SDS011;31788;6.954;-71.872;2023-05-15T06:57:40;2.35;;;0.70;;
46054;SDS011;31788;6.954;-71.872;2023-05-15T07:00:07;2.55;;;0.60;;
46054;SDS011;31788;6.954;-71.872;2023-05-15T07:02:34;2.95;;;0.70;;
46054;SDS011;31788;6.954;-71.872;2023-05-15T07:05:01;3.13;;;0.68;;
46054;SDS011;31788;6.954;-71.872;2023-05-15T07:07:27;1.65;;;0.50;;
46054;SDS011;31788;6.954;-71.872;2023-05-15T07:09:54;2.42;;;0.68;;
46054;SDS011;31788;6.954;-71.872;2023-05-15T07:12:21;2.90;;;0.68;;
46054;SDS011;31788;6.954;-71.872;2023-05-15T07:14:47;2.28;;;0.55;;
46054;SDS011;31788;6.954;-71.872;2023-05-15T07:17:14;3.70;;;0.90;;
46054;SDS011;31788;6.954;-71.872;2023-05-15T07:19:40;2.05;;;0.60;;
46054;SDS011;31788;6.954;-71.872;2023-05-15T07:22:07;1.27;;;0.50;;
46054;SDS011;31788;6.954;-71.872;2023-05-15T07:24:34;2.17;;;0.60;;
46054;SDS011;31788;6.954;-71.872;2023-05-15T07:27:00;3.00;;;0.80;;
46054;SDS011;31788;6.954;-71.872;2023-05-15T07:29:27;3.92;;;1.30;;
46054;SDS011;31788;6.954;-71.872;2023-05-15T07:31:53;1.65;;;0.60;;
46054;SDS011;31788;6.954;-71.872;2023-05-15T07:34:20;3.70;;;0.70;;
46054;SDS011;31788;6.954;-71.872;2023-05-15T07:36:47;2.05;;;0.70;;
46054;SDS011;31788;6.954;-71.872;2023-05-15T07:39:14;2.28;;;0.60;;
46054;SDS011;31788;6.954;-71.872;2023-05-15T07:41:41;3.78;;;1.05;;
46054;SDS011;31788;6.954;-71.872;2023-05-15T07:44:07;4.80;;;0.80;;
46054;SDS011;31788;6.954;-71.872;2023-05-15T07:46:34;1.13;;;0.73;;
46054;SDS011;31788;6.954;-71.872;2023-05-15T07:49:01;2.20;;;0.80;;
46054;SDS011;31788;6.954;-71.872;2023-05-15T07:51:27;2.47;;;0.77;;
46054;SDS011;31788;6.954;-71.872;2023-05-15T07:53:54;2.70;;;0.90;;
46054;SDS011;31788;6.954;-71.872;2023-05-15T07:56:20;2.65;;;0.80;;
46054;SDS011;31788;6.954;-71.872;2023-05-15T07:58:47;4.10;;;0.88;;
46054;SDS011;31788;6.954;-71.872;2023-05-15T08:01:14;3.05;;;0.80;;
46054;SDS011;31788;6.954;-71.872;2023-05-15T08:03:41;1.83;;;0.70;;
46054;SDS011;31788;6.954;-71.872;2023-05-15T08:06:08;3.47;;;0.90;;
46054;SDS011;31788;6.954;-71.872;2023-05-15T08:08:34;3.38;;;0.90;;
46054;SDS011;31788;6.954;-71.872;2023-05-15T08:11:01;2.88;;;0.90;;
46054;SDS011;31788;6.954;-71.872;2023-05-15T08:13:28;2.70;;;0.90;;
46054;SDS011;31788;6.954;-71.872;2023-05-15T08:15:54;3.47;;;0.90;;
46054;SDS011;31788;6.954;-71.872;2023-05-15T08:18:21;1.53;;;0.70;;
46054;SDS011;31788;6.954;-71.872;2023-05-15T08:20:48;3.05;;;0.90;;
46054;SDS011;31788;6.954;-71.872;2023-05-15T08:23:14;3.40;;;0.87;;
46054;SDS011;31788;6.954;-71.872;2023-05-15T08:25:41;2.45;;;0.80;;
46054;SDS011;31788;6.954;-71.872;2023-05-15T08:28:08;3.95;;;0.77;;
46054;SDS011;31788;6.954;-71.872;2023-05-15T08:30:35;2.72;;;0.82;;
46054;SDS011;31788;6.954;-71.872;2023-05-15T08:33:02;2.47;;;1.00;;
46054;SDS011;31788;6.954;-71.872;2023-05-15T08:35:29;2.97;;;0.70;;
46054;SDS011;31788;6.954;-71.872;2023-05-15T08:37:56;2.85;;;0.90;;
46054;SDS011;31788;6.954;-71.872;2023-05-15T08:40:24;2.67;;;1.00;;
46054;SDS011;31788;6.954;-71.872;2023-05-15T08:42:53;3.05;;;0.88;;
46054;SDS011;31788;6.954;-71.872;2023-05-15T08:45:21;2.70;;;0.80;;
46054;SDS011;31788;6.954;-71.872;2023-05-15T08:47:48;3.60;;;1.00;;
46054;SDS011;31788;6.954;-71.872;2023-05-15T08:50:16;3.55;;;1.13;;
46054;SDS011;31788;6.954;-71.872;2023-05-15T08:52:46;2.33;;;1.10;;
46054;SDS011;31788;6.954;-71.872;2023-05-15T08:55:14;3.05;;;0.80;;
46054;SDS011;31788;6.954;-71.872;2023-05-15T08:57:42;3.60;;;1.00;;
46054;SDS011;31788;6.954;-71.872;2023-05-15T09:00:09;3.35;;;0.82;;
46054;SDS011;31788;6.954;-71.872;2023-05-15T09:02:39;3.15;;;0.85;;
46054;SDS011;31788;6.954;-71.872;2023-05-15T09:05:07;2.42;;;0.85;;
46054;SDS011;31788;6.954;-71.872;2023-05-15T09:07:35;3.55;;;0.80;;
46054;SDS011;31788;6.954;-71.872;2023-05-15T09:10:05;1.27;;;0.73;;
46054;SDS011;31788;6.954;-71.872;2023-05-15T09:12:33;2.03;;;0.70;;
46054;SDS011;31788;6.954;-71.872;2023-05-15T09:15:14;2.10;;;0.60;;
46054;SDS011;31788;6.954;-71.872;2023-05-15T09:17:42;1.75;;;1.02;;
46054;SDS011;31788;6.954;-71.872;2023-05-15T09:20:52;2.13;;;0.70;;
46054;SDS011;31788;6.954;-71.872;2023-05-15T09:23:02;1.33;;;0.60;;
46054;SDS011;31788;6.954;-71.872;2023-05-15T09:25:34;2.60;;;0.70;;
46054;SDS011;31788;6.954;-71.872;2023-05-15T09:28:02;2.53;;;0.77;;
46054;SDS011;31788;6.954;-71.872;2023-05-15T09:30:49;3.22;;;0.80;;
46054;SDS011;31788;6.954;-71.872;2023-05-15T09:33:27;2.80;;;0.70;;
46054;SDS011;31788;6.954;-71.872;2023-05-15T09:36:12;1.65;;;0.70;;
46054;SDS011;31788;6.954;-71.872;2023-05-15T09:38:47;4.07;;;0.80;;
46054;SDS011;31788;6.954;-71.872;2023-05-15T09:41:14;1.63;;;0.70;;
46054;SDS011;31788;6.954;-71.872;2023-05-15T09:43:51;3.80;;;0.73;;
46054;SDS011;31788;6.954;-71.872;2023-05-15T09:46:20;2.10;;;0.70;;
46054;SDS011;31788;6.954;-71.872;2023-05-15T09:48:48;6.07;;;0.80;;
46054;SDS011;31788;6.954;-71.872;2023-05-15T09:51:19;2.40;;;0.77;;
46054;SDS011;31788;6.954;-71.872;2023-05-15T09:53:52;1.92;;;0.70;;
46054;SDS011;31788;6.954;-71.872;2023-05-15T09:56:19;3.20;;;0.75;;
46054;SDS011;31788;6.954;-71.872;2023-05-15T09:58:53;1.63;;;0.88;;
46054;SDS011;31788;6.954;-71.872;2023-05-15T10:01:23;2.57;;;0.80;;
46054;SDS011;31788;6.954;-71.872;2023-05-15T10:04:01;1.92;;;0.80;;
46054;SDS011;31788;6.954;-71.872;2023-05-15T10:06:35;4.07;;;0.90;;
46054;SDS011;31788;6.954;-71.872;2023-05-15T10:09:04;2.33;;;0.90;;
46054;SDS011;31788;6.954;-71.872;2023-05-15T10:11:34;2.53;;;0.95;;
46054;SDS011;31788;6.954;-71.872;2023-05-15T10:14:05;1.65;;;1.00;;
46054;SDS011;31788;6.954;-71.872;2023-05-15T10:16:34;1.75;;;0.85;;
46054;SDS011;31788;6.954;-71.872;2023-05-15T10:19:05;1.50;;;0.77;;
46054;SDS011;31788;6.954;-71.872;2023-05-15T10:21:34;2.22;;;0.70;;
46054;SDS011;31788;6.954;-71.872;2023-05-15T10:24:02;2.40;;;0.75;;
46054;SDS011;31788;6.954;-71.872;2023-05-15T10:29:04;1.90;;;0.80;;
46054;SDS011;31788;6.954;-71.872;2023-05-15T10:31:33;3.90;;;1.17;;
46054;SDS011;31788;6.954;-71.872;2023-05-15T10:34:04;2.65;;;0.90;;
46054;SDS011;31788;6.954;-71.872;2023-05-15T10:36:31;7.15;;;1.23;;
46054;SDS011;31788;6.954;-71.872;2023-05-15T10:38:59;3.75;;;1.15;;
46054;SDS011;31788;6.954;-71.872;2023-05-15T10:41:34;4.18;;;1.00;;
46054;SDS011;31788;6.954;-71.872;2023-05-15T10:44:02;4.60;;;1.00;;
46054;SDS011;31788;6.954;-71.872;2023-05-15T10:46:30;5.32;;;1.10;;
46054;SDS011;31788;6.954;-71.872;2023-05-15T10:48:59;4.43;;;1.30;;
46054;SDS011;31788;6.954;-71.872;2023-05-15T10:51:29;7.25;;;1.63;;
46054;SDS011;31788;6.954;-71.872;2023-05-15T10:53:58;6.55;;;1.77;;
46054;SDS011;31788;6.954;-71.872;2023-05-15T10:56:31;4.82;;;1.90;;
46054;SDS011;31788;6.954;-71.872;2023-05-15T10:59:09;6.38;;;2.63;;
46054;SDS011;31788;6.954;-71.872;2023-05-15T11:01:36;6.97;;;2.58;;
46054;SDS011;31788;6.954;-71.872;2023-05-15T11:04:14;8.32;;;2.65;;
46054;SDS011;31788;6.954;-71.872;2023-05-15T11:06:42;6.30;;;2.55;;
46054;SDS011;31788;6.954;-71.872;2023-05-15T11:14:24;5.78;;;2.17;;
46054;SDS011;31788;6.954;-71.872;2023-05-15T11:19:21;7.30;;;2.00;;
46054;SDS011;31788;6.954;-71.872;2023-05-15T11:21:55;4.35;;;2.25;;
46054;SDS011;31788;6.954;-71.872;2023-05-15T11:24:29;8.48;;;2.63;;
46054;SDS011;31788;6.954;-71.872;2023-05-15T11:27:01;7.55;;;2.78;;
46054;SDS011;31788;6.954;-71.872;2023-05-15T11:29:28;6.97;;;2.28;;
46054;SDS011;31788;6.954;-71.872;2023-05-15T11:31:59;5.28;;;1.45;;
46054;SDS011;31788;6.954;-71.872;2023-05-15T11:34:32;5.20;;;1.70;;
46054;SDS011;31788;6.954;-71.872;2023-05-15T11:37:00;3.78;;;1.48;;
46054;SDS011;31788;6.954;-71.872;2023-05-15T11:39:27;5.70;;;1.40;;
46054;SDS011;31788;6.954;-71.872;2023-05-15T11:41:53;4.95;;;1.40;;
46054;SDS011;31788;6.954;-71.872;2023-05-15T11:44:23;4.32;;;1.35;;
46054;SDS011;31788;6.954;-71.872;2023-05-15T11:46:50;3.05;;;1.40;;
46054;SDS011;31788;6.954;-71.872;2023-05-15T11:49:18;3.45;;;1.30;;
46054;SDS011;31788;6.954;-71.872;2023-05-15T11:51:48;3.97;;;1.02;;
46054;SDS011;31788;6.954;-71.872;2023-05-15T11:54:16;5.15;;;1.10;;
46054;SDS011;31788;6.954;-71.872;2023-05-15T11:56:43;6.07;;;0.95;;
46054;SDS011;31788;6.954;-71.872;2023-05-15T11:59:13;3.63;;;0.82;;
46054;SDS011;31788;6.954;-71.872;2023-05-15T12:01:43;3.15;;;1.08;;
46054;SDS011;31788;6.954;-71.872;2023-05-15T12:04:15;3.45;;;0.98;;
46054;SDS011;31788;6.954;-71.872;2023-05-15T12:06:42;5.18;;;1.85;;
46054;SDS011;31788;6.954;-71.872;2023-05-15T12:09:15;8.80;;;5.83;;
46054;SDS011;31788;6.954;-71.872;2023-05-15T12:11:53;6.03;;;2.57;;
46054;SDS011;31788;6.954;-71.872;2023-05-15T12:14:29;4.70;;;1.70;;
46054;SDS011;31788;6.954;-71.872;2023-05-15T12:17:00;3.97;;;1.50;;
46054;SDS011;31788;6.954;-71.872;2023-05-15T12:19:29;4.00;;;1.30;;
46054;SDS011;31788;6.954;-71.872;2023-05-15T12:21:56;3.40;;;1.10;;
46054;SDS011;31788;6.954;-71.872;2023-05-15T12:24:22;4.45;;;1.02;;
46054;SDS011;31788;6.954;-71.872;2023-05-15T12:26:51;5.03;;;1.50;;
46054;SDS011;31788;6.954;-71.872;2023-05-15T12:29:17;9.52;;;2.10;;
46054;SDS011;31788;6.954;-71.872;2023-05-15T12:31:44;20.30;;;3.43;;
46054;SDS011;31788;6.954;-71.872;2023-05-15T12:34:11;11.02;;;2.33;;
46054;SDS011;31788;6.954;-71.872;2023-05-15T12:36:40;7.30;;;2.13;;
46054;SDS011;31788;6.954;-71.872;2023-05-15T12:39:07;5.18;;;2.05;;
46054;SDS011;31788;6.954;-71.872;2023-05-15T12:41:35;10.70;;;2.10;;
46054;SDS011;31788;6.954;-71.872;2023-05-15T12:44:03;9.05;;;2.10;;
46054;SDS011;31788;6.954;-71.872;2023-05-15T12:46:31;6.85;;;2.20;;
46054;SDS011;31788;6.954;-71.872;2023-05-15T12:48:57;5.85;;;1.80;;
46054;SDS011;31788;6.954;-71.872;2023-05-15T12:51:25;7.78;;;1.80;;
46054;SDS011;31788;6.954;-71.872;2023-05-15T12:53:54;4.30;;;1.60;;
46054;SDS011;31788;6.954;-71.872;2023-05-15T12:56:23;5.90;;;1.70;;
46054;SDS011;31788;6.954;-71.872;2023-05-15T12:58:50;3.60;;;2.05;;
46054;SDS011;31788;6.954;-71.872;2023-05-15T13:01:18;5.17;;;1.93;;
46054;SDS011;31788;6.954;-71.872;2023-05-15T13:03:46;5.18;;;1.88;;
46054;SDS011;31788;6.954;-71.872;2023-05-15T13:06:13;7.57;;;2.10;;
46054;SDS011;31788;6.954;-71.872;2023-05-15T13:08:41;8.52;;;1.90;;
46054;SDS011;31788;6.954;-71.872;2023-05-15T13:11:11;7.13;;;1.80;;
46054;SDS011;31788;6.954;-71.872;2023-05-15T13:13:42;4.90;;;1.50;;
46054;SDS011;31788;6.954;-71.872;2023-05-15T13:16:31;6.93;;;1.20;;
46054;SDS011;31788;6.954;-71.872;2023-05-15T13:18:57;4.03;;;1.27;;
46054;SDS011;31788;6.954;-71.872;2023-05-15T13:21:24;5.90;;;1.40;;
46054;SDS011;31788;6.954;-71.872;2023-05-15T13:23:51;4.82;;;1.60;;
46054;SDS011;31788;6.954;-71.872;2023-05-15T13:26:17;3.97;;;1.60;;
46054;SDS011;31788;6.954;-71.872;2023-05-15T13:28:44;6.20;;;1.77;;
46054;SDS011;31788;6.954;-71.872;2023-05-15T13:31:12;4.40;;;1.45;;
46054;SDS011;31788;6.954;-71.872;2023-05-15T13:33:38;2.72;;;1.23;;
46054;SDS011;31788;6.954;-71.872;2023-05-15T13:36:06;4.03;;;1.20;;
46054;SDS011;31788;6.954;-71.872;2023-05-15T13:38:32;4.47;;;1.30;;
46054;SDS011;31788;6.954;-71.872;2023-05-15T13:40:59;3.80;;;1.30;;
46054;SDS011;31788;6.954;-71.872;2023-05-15T13:43:26;3.90;;;1.20;;
46054;SDS011;31788;6.954;-71.872;2023-05-15T13:45:53;4.23;;;1.40;;
46054;SDS011;31788;6.954;-71.872;2023-05-15T13:48:19;3.90;;;1.37;;
46054;SDS011;31788;6.954;-71.872;2023-05-15T13:50:46;3.63;;;1.50;;
46054;SDS011;31788;6.954;-71.872;2023-05-15T13:53:13;3.58;;;1.10;;
46054;SDS011;31788;6.954;-71.872;2023-05-15T13:55:44;3.33;;;1.23;;
46054;SDS011;31788;6.954;-71.872;2023-05-15T13:58:11;2.67;;;1.40;;
46054;SDS011;31788;6.954;-71.872;2023-05-15T14:00:38;4.00;;;0.98;;
46054;SDS011;31788;6.954;-71.872;2023-05-15T14:03:08;2.72;;;1.20;;
46054;SDS011;31788;6.954;-71.872;2023-05-15T14:05:35;1.95;;;0.93;;
46054;SDS011;31788;6.954;-71.872;2023-05-15T14:08:02;3.25;;;0.98;;
46054;SDS011;31788;6.954;-71.872;2023-05-15T14:10:28;3.85;;;0.90;;
46054;SDS011;31788;6.954;-71.872;2023-05-15T14:12:55;2.25;;;1.17;;
46054;SDS011;31788;6.954;-71.872;2023-05-15T14:15:22;11.20;;;1.48;;
46054;SDS011;31788;6.954;-71.872;2023-05-15T14:17:48;5.67;;;1.30;;
46054;SDS011;31788;6.954;-71.872;2023-05-15T14:20:15;4.70;;;1.05;;
46054;SDS011;31788;6.954;-71.872;2023-05-15T14:22:42;7.35;;;1.38;;
46054;SDS011;31788;6.954;-71.872;2023-05-15T14:25:08;5.10;;;1.10;;
46054;SDS011;31788;6.954;-71.872;2023-05-15T14:27:36;3.47;;;1.00;;
46054;SDS011;31788;6.954;-71.872;2023-05-15T14:30:02;4.82;;;1.20;;
46054;SDS011;31788;6.954;-71.872;2023-05-15T14:32:30;4.18;;;1.13;;
46054;SDS011;31788;6.954;-71.872;2023-05-15T14:34:56;4.80;;;1.10;;
46054;SDS011;31788;6.954;-71.872;2023-05-15T14:37:24;4.35;;;1.10;;
46054;SDS011;31788;6.954;-71.872;2023-05-15T14:39:52;3.27;;;1.00;;
46054;SDS011;31788;6.954;-71.872;2023-05-15T14:42:19;3.63;;;1.10;;
46054;SDS011;31788;6.954;-71.872;2023-05-15T14:44:46;2.47;;;0.88;;
46054;SDS011;31788;6.954;-71.872;2023-05-15T14:47:13;3.58;;;0.90;;
46054;SDS011;31788;6.954;-71.872;2023-05-15T14:49:41;4.25;;;1.00;;
46054;SDS011;31788;6.954;-71.872;2023-05-15T14:52:08;3.03;;;0.80;;
46054;SDS011;31788;6.954;-71.872;2023-05-15T14:54:36;2.13;;;0.70;;
46054;SDS011;31788;6.954;-71.872;2023-05-15T14:57:04;1.13;;;0.73;;
46054;SDS011;31788;6.954;-71.872;2023-05-15T14:59:31;1.50;;;0.60;;
46054;SDS011;31788;6.954;-71.872;2023-05-15T15:01:58;3.50;;;0.90;;
46054;SDS011;31788;6.954;-71.872;2023-05-15T15:04:24;2.80;;;0.93;;